sensor_id;sensor_type;location;lat;lon;timestamp;temperature;humidity
3208;DHT22;1616;52.394;9.756;2023-06-22T00:00:55;23.50;1.00
3208;DHT22;1616;52.394;9.756;2023-06-22T00:03:22;23.50;1.00
3208;DHT22;1616;52.394;9.756;2023-06-22T00:05:48;23.60;1.00
3208;DHT22;1616;52.394;9.756;2023-06-22T00:08:15;23.60;1.00
3208;DHT22;1616;52.394;9.756;2023-06-22T00:10:41;23.60;1.00
3208;DHT22;1616;52.394;9.756;2023-06-22T00:13:08;23.60;1.00
3208;DHT22;1616;52.394;9.756;2023-06-22T00:15:36;23.50;1.00
3208;DHT22;1616;52.394;9.756;2023-06-22T00:18:03;23.60;1.00
3208;DHT22;1616;52.394;9.756;2023-06-22T00:20:28;23.60;1.00
3208;DHT22;1616;52.394;9.756;2023-06-22T00:22:56;23.60;1.00
3208;DHT22;1616;52.394;9.756;2023-06-22T00:25:23;23.50;1.00
3208;DHT22;1616;52.394;9.756;2023-06-22T00:27:49;23.60;1.00
3208;DHT22;1616;52.394;9.756;2023-06-22T00:30:18;23.50;1.00
3208;DHT22;1616;52.394;9.756;2023-06-22T00:32:45;23.50;1.00
3208;DHT22;1616;52.394;9.756;2023-06-22T00:35:11;23.50;1.00
3208;DHT22;1616;52.394;9.756;2023-06-22T00:37:38;23.40;1.00
3208;DHT22;1616;52.394;9.756;2023-06-22T00:40:06;23.40;1.00
3208;DHT22;1616;52.394;9.756;2023-06-22T00:42:34;23.40;1.00
3208;DHT22;1616;52.394;9.756;2023-06-22T00:45:00;23.40;1.00
3208;DHT22;1616;52.394;9.756;2023-06-22T00:47:26;23.40;1.00
3208;DHT22;1616;52.394;9.756;2023-06-22T00:49:52;23.40;1.00
3208;DHT22;1616;52.394;9.756;2023-06-22T00:52:20;23.30;1.00
3208;DHT22;1616;52.394;9.756;2023-06-22T00:54:51;23.30;1.00
3208;DHT22;1616;52.394;9.756;2023-06-22T00:57:17;23.30;1.00
3208;DHT22;1616;52.394;9.756;2023-06-22T00:59:44;23.30;1.00
3208;DHT22;1616;52.394;9.756;2023-06-22T01:02:11;23.30;1.00
3208;DHT22;1616;52.394;9.756;2023-06-22T01:04:38;23.20;1.00
3208;DHT22;1616;52.394;9.756;2023-06-22T01:07:30;23.10;1.00
3208;DHT22;1616;52.394;9.756;2023-06-22T01:09:59;23.10;1.00
3208;DHT22;1616;52.394;9.756;2023-06-22T01:12:31;23.00;1.00
3208;DHT22;1616;52.394;9.756;2023-06-22T01:15:08;23.00;1.00
3208;DHT22;1616;52.394;9.756;2023-06-22T01:17:36;23.00;1.00
3208;DHT22;1616;52.394;9.756;2023-06-22T01:20:07;23.00;1.00
3208;DHT22;1616;52.394;9.756;2023-06-22T01:25:53;23.00;1.00
3208;DHT22;1616;52.394;9.756;2023-06-22T01:28:47;22.90;1.00
3208;DHT22;1616;52.394;9.756;2023-06-22T01:31:19;22.90;1.00
3208;DHT22;1616;52.394;9.756;2023-06-22T01:33:50;22.90;1.00
3208;DHT22;1616;52.394;9.756;2023-06-22T01:36:16;22.90;1.00
3208;DHT22;1616;52.394;9.756;2023-06-22T01:38:43;22.90;1.00
3208;DHT22;1616;52.394;9.756;2023-06-22T01:41:10;22.90;1.00
3208;DHT22;1616;52.394;9.756;2023-06-22T01:43:36;22.80;1.00
3208;DHT22;1616;52.394;9.756;2023-06-22T01:46:03;22.80;1.00
3208;DHT22;1616;52.394;9.756;2023-06-22T01:48:29;22.80;1.00
3208;DHT22;1616;52.394;9.756;2023-06-22T01:50:55;22.70;1.00
3208;DHT22;1616;52.394;9.756;2023-06-22T01:53:24;22.70;1.00
3208;DHT22;1616;52.394;9.756;2023-06-22T01:55:50;22.80;1.00
3208;DHT22;1616;52.394;9.756;2023-06-22T01:58:16;22.80;1.00
3208;DHT22;1616;52.394;9.756;2023-06-22T02:01:07;22.80;1.00
3208;DHT22;1616;52.394;9.756;2023-06-22T02:03:38;22.70;1.00
3208;DHT22;1616;52.394;9.756;2023-06-22T02:06:08;22.70;1.00
3208;DHT22;1616;52.394;9.756;2023-06-22T02:08:41;22.70;1.00
3208;DHT22;1616;52.394;9.756;2023-06-22T02:11:09;22.70;1.00
3208;DHT22;1616;52.394;9.756;2023-06-22T02:13:36;22.60;1.00
3208;DHT22;1616;52.394;9.756;2023-06-22T02:16:02;22.50;1.00
3208;DHT22;1616;52.394;9.756;2023-06-22T02:18:28;22.50;1.00
3208;DHT22;1616;52.394;9.756;2023-06-22T02:20:54;22.40;1.00
3208;DHT22;1616;52.394;9.756;2023-06-22T02:23:20;22.50;1.00
3208;DHT22;1616;52.394;9.756;2023-06-22T02:25:45;22.40;1.00
3208;DHT22;1616;52.394;9.756;2023-06-22T02:28:11;22.40;1.00
3208;DHT22;1616;52.394;9.756;2023-06-22T02:30:37;22.40;1.00
3208;DHT22;1616;52.394;9.756;2023-06-22T02:33:03;22.40;1.00
3208;DHT22;1616;52.394;9.756;2023-06-22T02:35:29;22.40;1.00
3208;DHT22;1616;52.394;9.756;2023-06-22T02:38:02;22.40;1.00
3208;DHT22;1616;52.394;9.756;2023-06-22T02:40:29;22.50;1.00
3208;DHT22;1616;52.394;9.756;2023-06-22T02:42:55;22.50;1.00
3208;DHT22;1616;52.394;9.756;2023-06-22T02:45:21;22.60;1.00
3208;DHT22;1616;52.394;9.756;2023-06-22T02:47:47;22.60;1.00
3208;DHT22;1616;52.394;9.756;2023-06-22T02:50:15;22.70;1.00
3208;DHT22;1616;52.394;9.756;2023-06-22T02:52:41;22.60;1.00
3208;DHT22;1616;52.394;9.756;2023-06-22T02:55:07;22.50;1.00
3208;DHT22;1616;52.394;9.756;2023-06-22T02:57:33;22.30;1.00
3208;DHT22;1616;52.394;9.756;2023-06-22T02:59:59;22.20;1.00
3208;DHT22;1616;52.394;9.756;2023-06-22T03:02:25;22.10;1.00
3208;DHT22;1616;52.394;9.756;2023-06-22T03:04:51;22.00;1.00
3208;DHT22;1616;52.394;9.756;2023-06-22T03:07:19;22.00;1.00
3208;DHT22;1616;52.394;9.756;2023-06-22T03:09:45;22.10;1.00
3208;DHT22;1616;52.394;9.756;2023-06-22T03:12:11;22.00;1.00
3208;DHT22;1616;52.394;9.756;2023-06-22T03:14:37;21.80;1.00
3208;DHT22;1616;52.394;9.756;2023-06-22T03:17:04;21.70;1.00
3208;DHT22;1616;52.394;9.756;2023-06-22T03:19:30;21.60;1.00
3208;DHT22;1616;52.394;9.756;2023-06-22T03:21:59;21.70;1.00
3208;DHT22;1616;52.394;9.756;2023-06-22T03:24:24;21.70;1.00
3208;DHT22;1616;52.394;9.756;2023-06-22T03:26:50;21.70;1.00
3208;DHT22;1616;52.394;9.756;2023-06-22T03:29:15;21.80;1.00
3208;DHT22;1616;52.394;9.756;2023-06-22T03:31:41;21.80;1.00
3208;DHT22;1616;52.394;9.756;2023-06-22T03:34:07;21.80;1.00
3208;DHT22;1616;52.394;9.756;2023-06-22T03:36:32;21.70;1.00
3208;DHT22;1616;52.394;9.756;2023-06-22T03:38:58;21.80;1.00
3208;DHT22;1616;52.394;9.756;2023-06-22T03:41:24;21.90;1.00
3208;DHT22;1616;52.394;9.756;2023-06-22T03:43:49;22.10;1.00
3208;DHT22;1616;52.394;9.756;2023-06-22T03:46:15;22.30;1.00
3208;DHT22;1616;52.394;9.756;2023-06-22T03:48:40;22.50;1.00
3208;DHT22;1616;52.394;9.756;2023-06-22T03:51:06;22.60;1.00
3208;DHT22;1616;52.394;9.756;2023-06-22T03:53:32;22.80;1.00
3208;DHT22;1616;52.394;9.756;2023-06-22T03:55:57;22.80;1.00
3208;DHT22;1616;52.394;9.756;2023-06-22T03:58:23;22.90;1.00
3208;DHT22;1616;52.394;9.756;2023-06-22T04:00:51;23.00;1.00
3208;DHT22;1616;52.394;9.756;2023-06-22T04:03:17;23.10;1.00
3208;DHT22;1616;52.394;9.756;2023-06-22T04:05:46;23.20;1.00
3208;DHT22;1616;52.394;9.756;2023-06-22T04:08:15;23.40;1.00
3208;DHT22;1616;52.394;9.756;2023-06-22T04:10:41;23.60;1.00
3208;DHT22;1616;52.394;9.756;2023-06-22T04:13:07;23.80;1.00
3208;DHT22;1616;52.394;9.756;2023-06-22T04:15:32;23.90;1.00
3208;DHT22;1616;52.394;9.756;2023-06-22T04:17:58;23.90;1.00
3208;DHT22;1616;52.394;9.756;2023-06-22T04:20:24;23.80;1.00
3208;DHT22;1616;52.394;9.756;2023-06-22T04:22:54;23.90;1.00
3208;DHT22;1616;52.394;9.756;2023-06-22T04:25:20;24.30;1.00
3208;DHT22;1616;52.394;9.756;2023-06-22T04:27:46;24.50;1.00
3208;DHT22;1616;52.394;9.756;2023-06-22T04:30:12;24.70;1.00
3208;DHT22;1616;52.394;9.756;2023-06-22T04:32:40;24.70;1.00
3208;DHT22;1616;52.394;9.756;2023-06-22T04:35:06;24.70;1.00
3208;DHT22;1616;52.394;9.756;2023-06-22T04:37:33;24.70;1.00
3208;DHT22;1616;52.394;9.756;2023-06-22T04:39:59;24.70;1.00
3208;DHT22;1616;52.394;9.756;2023-06-22T04:42:27;24.70;1.00
3208;DHT22;1616;52.394;9.756;2023-06-22T04:44:53;24.80;1.00
3208;DHT22;1616;52.394;9.756;2023-06-22T04:47:19;25.10;1.00
3208;DHT22;1616;52.394;9.756;2023-06-22T04:49:45;25.50;1.00
3208;DHT22;1616;52.394;9.756;2023-06-22T04:52:13;25.90;1.00
3208;DHT22;1616;52.394;9.756;2023-06-22T04:54:40;26.40;1.00
3208;DHT22;1616;52.394;9.756;2023-06-22T04:57:13;26.80;1.00
3208;DHT22;1616;52.394;9.756;2023-06-22T04:59:40;27.20;1.00
3208;DHT22;1616;52.394;9.756;2023-06-22T05:02:07;27.40;1.00
3208;DHT22;1616;52.394;9.756;2023-06-22T05:04:34;27.50;1.00
3208;DHT22;1616;52.394;9.756;2023-06-22T05:07:02;27.50;1.00
3208;DHT22;1616;52.394;9.756;2023-06-22T05:09:28;27.30;1.00
3208;DHT22;1616;52.394;9.756;2023-06-22T05:11:54;27.20;1.00
3208;DHT22;1616;52.394;9.756;2023-06-22T05:14:19;27.00;1.00
3208;DHT22;1616;52.394;9.756;2023-06-22T05:16:46;27.20;1.00
3208;DHT22;1616;52.394;9.756;2023-06-22T05:19:12;27.40;1.00
3208;DHT22;1616;52.394;9.756;2023-06-22T05:21:38;27.90;1.00
3208;DHT22;1616;52.394;9.756;2023-06-22T05:24:04;28.30;1.00
3208;DHT22;1616;52.394;9.756;2023-06-22T05:26:31;28.90;1.00
3208;DHT22;1616;52.394;9.756;2023-06-22T05:28:58;29.50;1.00
3208;DHT22;1616;52.394;9.756;2023-06-22T05:31:24;30.00;1.00
3208;DHT22;1616;52.394;9.756;2023-06-22T05:33:52;30.40;1.00
3208;DHT22;1616;52.394;9.756;2023-06-22T05:36:18;30.60;1.00
3208;DHT22;1616;52.394;9.756;2023-06-22T05:38:51;30.70;1.00
3208;DHT22;1616;52.394;9.756;2023-06-22T05:41:17;30.70;1.00
3208;DHT22;1616;52.394;9.756;2023-06-22T05:43:43;30.50;1.00
3208;DHT22;1616;52.394;9.756;2023-06-22T05:46:08;30.00;1.00
3208;DHT22;1616;52.394;9.756;2023-06-22T05:48:34;29.60;1.00
3208;DHT22;1616;52.394;9.756;2023-06-22T05:50:59;29.30;1.00
3208;DHT22;1616;52.394;9.756;2023-06-22T05:53:25;29.20;1.00
3208;DHT22;1616;52.394;9.756;2023-06-22T05:55:51;29.30;1.00
3208;DHT22;1616;52.394;9.756;2023-06-22T05:58:17;29.50;1.00
3208;DHT22;1616;52.394;9.756;2023-06-22T06:00:43;29.70;1.00
3208;DHT22;1616;52.394;9.756;2023-06-22T06:03:09;30.00;1.00
3208;DHT22;1616;52.394;9.756;2023-06-22T06:05:36;30.10;1.00
3208;DHT22;1616;52.394;9.756;2023-06-22T06:08:04;30.20;1.00
3208;DHT22;1616;52.394;9.756;2023-06-22T06:10:31;30.30;1.00
3208;DHT22;1616;52.394;9.756;2023-06-22T06:12:57;30.60;1.00
3208;DHT22;1616;52.394;9.756;2023-06-22T06:15:23;31.10;1.00
3208;DHT22;1616;52.394;9.756;2023-06-22T06:17:50;31.60;1.00
3208;DHT22;1616;52.394;9.756;2023-06-22T06:20:21;32.00;1.00
3208;DHT22;1616;52.394;9.756;2023-06-22T06:22:47;32.60;1.00
3208;DHT22;1616;52.394;9.756;2023-06-22T06:25:14;33.00;1.00
3208;DHT22;1616;52.394;9.756;2023-06-22T06:27:43;33.40;1.00
3208;DHT22;1616;52.394;9.756;2023-06-22T06:30:11;33.80;1.00
3208;DHT22;1616;52.394;9.756;2023-06-22T06:32:36;34.00;1.00
3208;DHT22;1616;52.394;9.756;2023-06-22T06:35:04;34.20;1.00
3208;DHT22;1616;52.394;9.756;2023-06-22T06:37:30;34.20;1.00
3208;DHT22;1616;52.394;9.756;2023-06-22T06:39:56;34.10;1.00
3208;DHT22;1616;52.394;9.756;2023-06-22T06:42:21;34.10;1.00
3208;DHT22;1616;52.394;9.756;2023-06-22T06:44:49;34.10;1.00
3208;DHT22;1616;52.394;9.756;2023-06-22T06:47:15;34.10;1.00
3208;DHT22;1616;52.394;9.756;2023-06-22T06:49:42;34.20;1.00
3208;DHT22;1616;52.394;9.756;2023-06-22T06:52:08;34.20;1.00
3208;DHT22;1616;52.394;9.756;2023-06-22T06:54:34;34.40;1.00
3208;DHT22;1616;52.394;9.756;2023-06-22T06:56:59;34.50;1.00
3208;DHT22;1616;52.394;9.756;2023-06-22T06:59:25;34.60;1.00
3208;DHT22;1616;52.394;9.756;2023-06-22T07:01:51;34.70;1.00
3208;DHT22;1616;52.394;9.756;2023-06-22T07:04:16;34.90;1.00
3208;DHT22;1616;52.394;9.756;2023-06-22T07:06:42;35.10;1.00
3208;DHT22;1616;52.394;9.756;2023-06-22T07:09:08;35.30;1.00
3208;DHT22;1616;52.394;9.756;2023-06-22T07:11:34;35.30;1.00
3208;DHT22;1616;52.394;9.756;2023-06-22T07:14:01;35.30;1.00
3208;DHT22;1616;52.394;9.756;2023-06-22T07:16:26;35.50;1.00
3208;DHT22;1616;52.394;9.756;2023-06-22T07:18:53;35.50;1.00
3208;DHT22;1616;52.394;9.756;2023-06-22T07:21:19;35.30;1.00
3208;DHT22;1616;52.394;9.756;2023-06-22T07:23:45;35.10;1.00
3208;DHT22;1616;52.394;9.756;2023-06-22T07:26:10;34.80;1.00
3208;DHT22;1616;52.394;9.756;2023-06-22T07:28:38;34.80;1.00
3208;DHT22;1616;52.394;9.756;2023-06-22T07:31:06;34.80;1.00
3208;DHT22;1616;52.394;9.756;2023-06-22T07:33:31;34.70;1.00
3208;DHT22;1616;52.394;9.756;2023-06-22T07:35:57;34.70;1.00
3208;DHT22;1616;52.394;9.756;2023-06-22T07:38:23;34.70;1.00
3208;DHT22;1616;52.394;9.756;2023-06-22T07:40:49;34.50;1.00
3208;DHT22;1616;52.394;9.756;2023-06-22T07:43:17;34.60;1.00
3208;DHT22;1616;52.394;9.756;2023-06-22T07:45:51;34.90;1.00
3208;DHT22;1616;52.394;9.756;2023-06-22T07:48:23;35.20;1.00
3208;DHT22;1616;52.394;9.756;2023-06-22T07:50:49;35.20;1.00
3208;DHT22;1616;52.394;9.756;2023-06-22T07:53:15;35.20;1.00
3208;DHT22;1616;52.394;9.756;2023-06-22T07:55:41;35.30;1.00
3208;DHT22;1616;52.394;9.756;2023-06-22T07:58:06;35.30;1.00
3208;DHT22;1616;52.394;9.756;2023-06-22T08:00:33;35.00;1.00
3208;DHT22;1616;52.394;9.756;2023-06-22T08:02:59;34.70;1.00
3208;DHT22;1616;52.394;9.756;2023-06-22T08:05:26;34.40;1.00
3208;DHT22;1616;52.394;9.756;2023-06-22T08:07:53;33.90;1.00
3208;DHT22;1616;52.394;9.756;2023-06-22T08:10:20;33.30;1.00
3208;DHT22;1616;52.394;9.756;2023-06-22T08:12:46;32.60;1.00
3208;DHT22;1616;52.394;9.756;2023-06-22T08:15:12;32.20;1.00
3208;DHT22;1616;52.394;9.756;2023-06-22T08:17:38;31.70;1.00
3208;DHT22;1616;52.394;9.756;2023-06-22T08:20:05;31.20;1.00
3208;DHT22;1616;52.394;9.756;2023-06-22T08:22:41;30.90;1.00
3208;DHT22;1616;52.394;9.756;2023-06-22T08:25:07;30.50;1.00
3208;DHT22;1616;52.394;9.756;2023-06-22T08:27:33;30.30;1.00
3208;DHT22;1616;52.394;9.756;2023-06-22T08:30:02;30.20;1.00
3208;DHT22;1616;52.394;9.756;2023-06-22T08:32:28;30.00;1.00
3208;DHT22;1616;52.394;9.756;2023-06-22T08:34:55;29.70;1.00
3208;DHT22;1616;52.394;9.756;2023-06-22T08:37:23;29.50;1.00
3208;DHT22;1616;52.394;9.756;2023-06-22T08:39:58;29.40;1.00
3208;DHT22;1616;52.394;9.756;2023-06-22T08:42:23;29.30;1.00
3208;DHT22;1616;52.394;9.756;2023-06-22T08:44:50;29.30;1.00
3208;DHT22;1616;52.394;9.756;2023-06-22T08:47:16;29.30;1.00
3208;DHT22;1616;52.394;9.756;2023-06-22T08:49:41;29.30;1.00
3208;DHT22;1616;52.394;9.756;2023-06-22T08:52:07;29.40;1.00
3208;DHT22;1616;52.394;9.756;2023-06-22T08:54:33;29.40;1.00
3208;DHT22;1616;52.394;9.756;2023-06-22T08:57:01;29.30;1.00
3208;DHT22;1616;52.394;9.756;2023-06-22T08:59:27;29.20;1.00
3208;DHT22;1616;52.394;9.756;2023-06-22T09:01:52;29.20;1.00
3208;DHT22;1616;52.394;9.756;2023-06-22T09:04:18;29.20;1.00
3208;DHT22;1616;52.394;9.756;2023-06-22T09:06:43;29.20;1.00
3208;DHT22;1616;52.394;9.756;2023-06-22T09:09:15;29.20;1.00
3208;DHT22;1616;52.394;9.756;2023-06-22T09:11:41;29.20;1.00
3208;DHT22;1616;52.394;9.756;2023-06-22T09:14:06;29.20;1.00
3208;DHT22;1616;52.394;9.756;2023-06-22T09:16:32;29.20;1.00
3208;DHT22;1616;52.394;9.756;2023-06-22T09:18:58;29.40;1.00
3208;DHT22;1616;52.394;9.756;2023-06-22T09:21:24;29.70;1.00
3208;DHT22;1616;52.394;9.756;2023-06-22T09:23:50;30.00;1.00
3208;DHT22;1616;52.394;9.756;2023-06-22T09:26:19;30.30;1.00
3208;DHT22;1616;52.394;9.756;2023-06-22T09:28:45;30.80;1.00
3208;DHT22;1616;52.394;9.756;2023-06-22T09:31:11;31.20;1.00
3208;DHT22;1616;52.394;9.756;2023-06-22T09:33:39;31.50;1.00
3208;DHT22;1616;52.394;9.756;2023-06-22T09:36:08;31.80;1.00
3208;DHT22;1616;52.394;9.756;2023-06-22T09:38:38;32.00;1.00
3208;DHT22;1616;52.394;9.756;2023-06-22T09:41:04;32.10;1.00
3208;DHT22;1616;52.394;9.756;2023-06-22T09:43:32;32.10;1.00
3208;DHT22;1616;52.394;9.756;2023-06-22T09:46:00;31.90;1.00
3208;DHT22;1616;52.394;9.756;2023-06-22T09:48:27;31.70;1.00
3208;DHT22;1616;52.394;9.756;2023-06-22T09:50:54;31.50;1.00
3208;DHT22;1616;52.394;9.756;2023-06-22T09:53:20;31.20;1.00
3208;DHT22;1616;52.394;9.756;2023-06-22T09:55:46;31.10;1.00
3208;DHT22;1616;52.394;9.756;2023-06-22T09:58:11;31.00;1.00
3208;DHT22;1616;52.394;9.756;2023-06-22T10:00:37;31.00;1.00
3208;DHT22;1616;52.394;9.756;2023-06-22T10:03:02;31.10;1.00
3208;DHT22;1616;52.394;9.756;2023-06-22T10:05:28;31.20;1.00
3208;DHT22;1616;52.394;9.756;2023-06-22T10:07:54;31.40;1.00
3208;DHT22;1616;52.394;9.756;2023-06-22T10:10:19;31.60;1.00
3208;DHT22;1616;52.394;9.756;2023-06-22T10:12:47;31.60;1.00
3208;DHT22;1616;52.394;9.756;2023-06-22T10:15:14;31.60;1.00
3208;DHT22;1616;52.394;9.756;2023-06-22T10:17:41;31.60;1.00
3208;DHT22;1616;52.394;9.756;2023-06-22T10:20:08;31.50;1.00
3208;DHT22;1616;52.394;9.756;2023-06-22T10:22:45;31.50;1.00
3208;DHT22;1616;52.394;9.756;2023-06-22T10:25:12;31.40;1.00
3208;DHT22;1616;52.394;9.756;2023-06-22T10:27:38;31.20;1.00
3208;DHT22;1616;52.394;9.756;2023-06-22T10:30:07;31.10;1.00
3208;DHT22;1616;52.394;9.756;2023-06-22T10:32:32;31.00;1.00
3208;DHT22;1616;52.394;9.756;2023-06-22T10:34:58;30.90;1.00
3208;DHT22;1616;52.394;9.756;2023-06-22T10:37:24;30.80;1.00
3208;DHT22;1616;52.394;9.756;2023-06-22T10:39:50;30.80;1.00
3208;DHT22;1616;52.394;9.756;2023-06-22T10:42:16;30.90;1.00
3208;DHT22;1616;52.394;9.756;2023-06-22T10:44:41;30.90;1.00
3208;DHT22;1616;52.394;9.756;2023-06-22T10:47:09;30.90;1.00
3208;DHT22;1616;52.394;9.756;2023-06-22T10:49:38;31.00;1.00
3208;DHT22;1616;52.394;9.756;2023-06-22T10:52:05;31.00;1.00
3208;DHT22;1616;52.394;9.756;2023-06-22T10:54:32;31.10;1.00
3208;DHT22;1616;52.394;9.756;2023-06-22T10:56:59;31.10;1.00
3208;DHT22;1616;52.394;9.756;2023-06-22T10:59:25;31.00;1.00
3208;DHT22;1616;52.394;9.756;2023-06-22T11:01:51;31.00;1.00
3208;DHT22;1616;52.394;9.756;2023-06-22T11:04:17;31.10;1.00
3208;DHT22;1616;52.394;9.756;2023-06-22T11:06:43;31.10;1.00
3208;DHT22;1616;52.394;9.756;2023-06-22T11:09:09;31.10;1.00
3208;DHT22;1616;52.394;9.756;2023-06-22T11:11:34;31.20;1.00
3208;DHT22;1616;52.394;9.756;2023-06-22T11:14:00;31.30;1.00
3208;DHT22;1616;52.394;9.756;2023-06-22T11:16:26;31.30;1.00
3208;DHT22;1616;52.394;9.756;2023-06-22T11:18:52;31.30;1.00
3208;DHT22;1616;52.394;9.756;2023-06-22T11:21:18;31.30;1.00
3208;DHT22;1616;52.394;9.756;2023-06-22T11:23:43;31.30;1.00
3208;DHT22;1616;52.394;9.756;2023-06-22T11:26:09;31.30;1.00
3208;DHT22;1616;52.394;9.756;2023-06-22T11:28:34;31.30;1.00
3208;DHT22;1616;52.394;9.756;2023-06-22T11:31:00;31.40;1.00
3208;DHT22;1616;52.394;9.756;2023-06-22T11:33:26;31.30;1.00
3208;DHT22;1616;52.394;9.756;2023-06-22T11:35:51;31.20;1.00
3208;DHT22;1616;52.394;9.756;2023-06-22T11:38:17;31.10;1.00
3208;DHT22;1616;52.394;9.756;2023-06-22T11:40:43;31.00;1.00
3208;DHT22;1616;52.394;9.756;2023-06-22T11:43:08;31.10;1.00
3208;DHT22;1616;52.394;9.756;2023-06-22T11:45:34;31.00;1.00
3208;DHT22;1616;52.394;9.756;2023-06-22T11:47:59;31.10;1.00
3208;DHT22;1616;52.394;9.756;2023-06-22T11:50:25;31.40;1.00
3208;DHT22;1616;52.394;9.756;2023-06-22T11:52:51;32.00;1.00
3208;DHT22;1616;52.394;9.756;2023-06-22T11:55:18;32.60;1.00
3208;DHT22;1616;52.394;9.756;2023-06-22T11:57:55;32.90;1.00
3208;DHT22;1616;52.394;9.756;2023-06-22T12:00:21;33.10;1.00
3208;DHT22;1616;52.394;9.756;2023-06-22T12:02:50;33.50;1.00
3208;DHT22;1616;52.394;9.756;2023-06-22T12:05:17;34.10;1.00
3208;DHT22;1616;52.394;9.756;2023-06-22T12:07:43;34.70;1.00
3208;DHT22;1616;52.394;9.756;2023-06-22T12:10:09;35.30;1.00
3208;DHT22;1616;52.394;9.756;2023-06-22T12:12:35;35.80;1.00
3208;DHT22;1616;52.394;9.756;2023-06-22T12:15:00;36.10;1.00
3208;DHT22;1616;52.394;9.756;2023-06-22T12:17:29;36.10;1.00
3208;DHT22;1616;52.394;9.756;2023-06-22T12:19:55;35.90;1.00
3208;DHT22;1616;52.394;9.756;2023-06-22T12:22:21;35.60;1.00
3208;DHT22;1616;52.394;9.756;2023-06-22T12:24:47;35.20;1.00
3208;DHT22;1616;52.394;9.756;2023-06-22T12:27:13;34.70;1.00
3208;DHT22;1616;52.394;9.756;2023-06-22T12:29:41;34.30;1.00
3208;DHT22;1616;52.394;9.756;2023-06-22T12:32:07;33.80;1.00
3208;DHT22;1616;52.394;9.756;2023-06-22T12:34:33;33.60;1.00
3208;DHT22;1616;52.394;9.756;2023-06-22T12:36:59;33.40;1.00
3208;DHT22;1616;52.394;9.756;2023-06-22T12:39:24;33.10;1.00
3208;DHT22;1616;52.394;9.756;2023-06-22T12:41:50;32.90;1.00
3208;DHT22;1616;52.394;9.756;2023-06-22T12:44:15;32.70;1.00
3208;DHT22;1616;52.394;9.756;2023-06-22T12:46:41;32.60;1.00
3208;DHT22;1616;52.394;9.756;2023-06-22T12:49:07;32.50;1.00
3208;DHT22;1616;52.394;9.756;2023-06-22T12:51:32;32.50;1.00
3208;DHT22;1616;52.394;9.756;2023-06-22T12:54:00;32.60;1.00
3208;DHT22;1616;52.394;9.756;2023-06-22T12:56:25;32.60;1.00
3208;DHT22;1616;52.394;9.756;2023-06-22T12:58:51;32.70;1.00
3208;DHT22;1616;52.394;9.756;2023-06-22T13:01:16;32.60;1.00
3208;DHT22;1616;52.394;9.756;2023-06-22T13:03:43;32.50;1.00
3208;DHT22;1616;52.394;9.756;2023-06-22T13:06:09;32.40;1.00
3208;DHT22;1616;52.394;9.756;2023-06-22T13:08:34;32.20;1.00
3208;DHT22;1616;52.394;9.756;2023-06-22T13:11:00;32.00;1.00
3208;DHT22;1616;52.394;9.756;2023-06-22T13:13:25;31.70;1.00
3208;DHT22;1616;52.394;9.756;2023-06-22T13:15:53;31.60;1.00
3208;DHT22;1616;52.394;9.756;2023-06-22T13:18:19;31.30;1.00
3208;DHT22;1616;52.394;9.756;2023-06-22T13:20:45;31.30;1.00
3208;DHT22;1616;52.394;9.756;2023-06-22T13:23:12;31.00;1.00
3208;DHT22;1616;52.394;9.756;2023-06-22T13:25:37;30.60;1.00
3208;DHT22;1616;52.394;9.756;2023-06-22T13:28:03;30.00;1.00
3208;DHT22;1616;52.394;9.756;2023-06-22T13:30:29;29.50;1.00
3208;DHT22;1616;52.394;9.756;2023-06-22T13:32:56;28.90;1.00
3208;DHT22;1616;52.394;9.756;2023-06-22T13:35:22;28.30;1.00
3208;DHT22;1616;52.394;9.756;2023-06-22T13:37:48;27.80;1.00
3208;DHT22;1616;52.394;9.756;2023-06-22T13:40:13;27.10;1.00
3208;DHT22;1616;52.394;9.756;2023-06-22T13:42:40;27.00;1.00
3208;DHT22;1616;52.394;9.756;2023-06-22T13:45:07;26.80;1.00
3208;DHT22;1616;52.394;9.756;2023-06-22T13:47:33;26.60;1.00
3208;DHT22;1616;52.394;9.756;2023-06-22T13:49:59;26.60;1.00
3208;DHT22;1616;52.394;9.756;2023-06-22T13:52:25;26.70;1.00
3208;DHT22;1616;52.394;9.756;2023-06-22T13:54:50;26.70;1.00
3208;DHT22;1616;52.394;9.756;2023-06-22T13:57:16;26.90;1.00
3208;DHT22;1616;52.394;9.756;2023-06-22T13:59:42;27.00;1.00
3208;DHT22;1616;52.394;9.756;2023-06-22T14:02:08;27.20;1.00
3208;DHT22;1616;52.394;9.756;2023-06-22T14:04:33;27.30;1.00
3208;DHT22;1616;52.394;9.756;2023-06-22T14:06:59;27.50;1.00
3208;DHT22;1616;52.394;9.756;2023-06-22T14:09:24;27.60;1.00
3208;DHT22;1616;52.394;9.756;2023-06-22T14:11:50;27.70;1.00
3208;DHT22;1616;52.394;9.756;2023-06-22T14:14:16;27.80;1.00
3208;DHT22;1616;52.394;9.756;2023-06-22T14:16:42;27.80;1.00
3208;DHT22;1616;52.394;9.756;2023-06-22T14:19:11;27.80;1.00
3208;DHT22;1616;52.394;9.756;2023-06-22T14:21:36;27.50;1.00
3208;DHT22;1616;52.394;9.756;2023-06-22T14:24:02;27.10;1.00
3208;DHT22;1616;52.394;9.756;2023-06-22T14:26:28;26.60;1.00
3208;DHT22;1616;52.394;9.756;2023-06-22T14:28:53;26.30;1.00
3208;DHT22;1616;52.394;9.756;2023-06-22T14:31:19;26.10;1.00
3208;DHT22;1616;52.394;9.756;2023-06-22T14:33:49;26.00;1.00
3208;DHT22;1616;52.394;9.756;2023-06-22T14:36:15;26.00;1.00
3208;DHT22;1616;52.394;9.756;2023-06-22T14:38:41;26.10;1.00
3208;DHT22;1616;52.394;9.756;2023-06-22T14:41:07;26.20;1.00
3208;DHT22;1616;52.394;9.756;2023-06-22T14:43:33;26.30;1.00
3208;DHT22;1616;52.394;9.756;2023-06-22T14:45:59;26.50;1.00
3208;DHT22;1616;52.394;9.756;2023-06-22T14:48:24;26.70;1.00
3208;DHT22;1616;52.394;9.756;2023-06-22T14:50:50;26.80;1.00
3208;DHT22;1616;52.394;9.756;2023-06-22T14:53:16;27.00;1.00
3208;DHT22;1616;52.394;9.756;2023-06-22T14:55:42;27.00;1.00
3208;DHT22;1616;52.394;9.756;2023-06-22T14:58:07;27.00;1.00
3208;DHT22;1616;52.394;9.756;2023-06-22T15:00:33;27.00;1.00
3208;DHT22;1616;52.394;9.756;2023-06-22T15:02:58;26.90;1.00
3208;DHT22;1616;52.394;9.756;2023-06-22T15:05:25;27.00;1.00
3208;DHT22;1616;52.394;9.756;2023-06-22T15:07:50;26.90;1.00
3208;DHT22;1616;52.394;9.756;2023-06-22T15:10:16;26.90;1.00
3208;DHT22;1616;52.394;9.756;2023-06-22T15:12:42;26.90;1.00
3208;DHT22;1616;52.394;9.756;2023-06-22T15:15:08;26.80;1.00
3208;DHT22;1616;52.394;9.756;2023-06-22T15:17:34;26.60;1.00
3208;DHT22;1616;52.394;9.756;2023-06-22T15:20:00;26.40;1.00
3208;DHT22;1616;52.394;9.756;2023-06-22T15:22:26;25.90;1.00
3208;DHT22;1616;52.394;9.756;2023-06-22T15:24:51;25.40;1.00
3208;DHT22;1616;52.394;9.756;2023-06-22T15:27:24;24.80;1.00
3208;DHT22;1616;52.394;9.756;2023-06-22T15:29:50;24.40;1.00
3208;DHT22;1616;52.394;9.756;2023-06-22T15:32:16;24.00;1.00
3208;DHT22;1616;52.394;9.756;2023-06-22T15:34:42;23.50;1.00
3208;DHT22;1616;52.394;9.756;2023-06-22T15:37:07;23.30;1.00
3208;DHT22;1616;52.394;9.756;2023-06-22T15:39:33;23.10;1.00
3208;DHT22;1616;52.394;9.756;2023-06-22T15:41:58;23.00;1.00
3208;DHT22;1616;52.394;9.756;2023-06-22T15:44:24;22.80;1.00
3208;DHT22;1616;52.394;9.756;2023-06-22T15:46:50;22.70;1.00
3208;DHT22;1616;52.394;9.756;2023-06-22T15:49:16;22.60;1.00
3208;DHT22;1616;52.394;9.756;2023-06-22T15:51:43;22.50;1.00
3208;DHT22;1616;52.394;9.756;2023-06-22T15:54:09;22.40;1.00
3208;DHT22;1616;52.394;9.756;2023-06-22T15:56:35;22.40;1.00
3208;DHT22;1616;52.394;9.756;2023-06-22T15:59:00;22.30;1.00
3208;DHT22;1616;52.394;9.756;2023-06-22T16:01:26;22.30;1.00
3208;DHT22;1616;52.394;9.756;2023-06-22T16:03:53;22.20;1.00
3208;DHT22;1616;52.394;9.756;2023-06-22T16:06:20;22.20;1.00
3208;DHT22;1616;52.394;9.756;2023-06-22T16:08:45;22.20;1.00
3208;DHT22;1616;52.394;9.756;2023-06-22T16:11:11;22.10;1.00
3208;DHT22;1616;52.394;9.756;2023-06-22T16:13:37;22.00;1.00
3208;DHT22;1616;52.394;9.756;2023-06-22T16:16:04;22.00;1.00